Time;durP1;ratioP1;P1;durP2;ratioP2;P2;SDS_P1;SDS_P2;PMS_P1;PMS_P2;Temp;Humidity;BMP_temperature;BMP_pressure;BME280_temperature;BME280_humidity;BME280_pressure;Samples;Min_cycle;Max_cycle;Signal;HPM_P1;HPM_P2
2022/04/20 00:01:45;;;;;;;3.37;2.40;;;9.90;99.90;;;;;;4891225;29;20266;-75
2022/04/20 00:04:12;;;;;;;2.63;2.17;;;9.90;99.90;;;;;;4885394;29;20196;-74
2022/04/20 00:06:39;;;;;;;4.13;2.53;;;9.90;99.90;;;;;;4888900;29;20212;-74
2022/04/20 00:09:05;;;;;;;3.43;2.30;;;9.90;99.90;;;;;;4889318;29;20228;-74
2022/04/20 00:11:32;;;;;;;4.03;2.50;;;9.80;99.90;;;;;;4891279;29;20232;-74
2022/04/20 00:13:59;;;;;;;5.07;2.73;;;9.80;99.90;;;;;;4888717;29;20202;-76
2022/04/20 00:16:25;;;;;;;7.40;2.57;;;9.70;99.90;;;;;;4889371;29;20207;-74
2022/04/20 00:18:52;;;;;;;2.83;2.20;;;9.60;99.90;;;;;;4888007;29;20251;-74
2022/04/20 00:21:25;;;;;;;4.90;2.27;;;9.60;99.90;;;;;;4888237;29;20311;-74
2022/04/20 00:23:52;;;;;;;3.80;2.50;;;9.30;99.90;;;;;;4893030;29;20207;-71
2022/04/20 00:26:18;;;;;;;6.20;2.50;;;9.40;99.90;;;;;;4893163;29;20198;-70
2022/04/20 00:28:45;;;;;;;7.37;2.77;;;9.40;99.90;;;;;;4889552;29;20214;-71
2022/04/20 00:31:12;;;;;;;3.60;2.90;;;9.40;99.90;;;;;;4884516;29;20206;-72
2022/04/20 00:33:39;;;;;;;5.20;2.87;;;9.30;99.90;;;;;;4890089;29;20257;-71
2022/04/20 00:36:05;;;;;;;3.97;2.47;;;9.30;99.90;;;;;;4892620;29;20222;-71
2022/04/20 00:38:32;;;;;;;3.63;2.60;;;9.30;99.90;;;;;;4893096;29;20771;-71
2022/04/20 00:40:59;;;;;;;7.47;2.97;;;9.30;99.90;;;;;;4891369;29;20211;-72
2022/04/20 00:43:28;;;;;;;7.37;3.03;;;9.30;99.90;;;;;;4899219;29;20210;-72
2022/04/20 00:45:56;;;;;;;4.03;2.73;;;9.20;99.90;;;;;;4892230;29;20230;-72
2022/04/20 00:48:23;;;;;;;5.50;2.73;;;9.20;99.90;;;;;;4886063;29;20632;-71
2022/04/20 00:50:49;;;;;;;6.87;3.00;;;9.10;99.90;;;;;;4892528;29;20225;-71
2022/04/20 00:53:16;;;;;;;3.23;2.50;;;9.10;99.90;;;;;;4894281;29;20206;-73
2022/04/20 00:55:43;;;;;;;6.00;2.87;;;9.10;99.90;;;;;;4890412;29;20216;-73
2022/04/20 00:58:09;;;;;;;3.77;2.90;;;9.20;99.90;;;;;;4893871;29;20626;-69
2022/04/20 01:00:36;;;;;;;5.67;3.10;;;9.20;99.90;;;;;;4906012;29;20285;-72
2022/04/20 01:03:04;;;;;;;3.90;2.70;;;9.10;99.90;;;;;;4890452;29;20197;-71
2022/04/20 01:05:31;;;;;;;5.43;2.83;;;9.00;99.90;;;;;;4890541;29;20328;-72
2022/04/20 01:07:58;;;;;;;4.43;2.87;;;9.00;99.90;;;;;;4888659;29;20733;-72
2022/04/20 01:10:25;;;;;;;5.00;2.77;;;9.00;99.90;;;;;;4886662;29;20245;-71
2022/04/20 01:12:52;;;;;;;3.10;2.67;;;8.90;99.90;;;;;;4892133;29;20198;-74
2022/04/20 01:15:18;;;;;;;5.27;2.87;;;8.90;99.90;;;;;;4889940;29;20206;-71
2022/04/20 01:17:45;;;;;;;3.50;2.53;;;8.90;99.90;;;;;;4892416;29;20209;-71
2022/04/20 01:20:13;;;;;;;4.57;2.83;;;9.00;99.90;;;;;;4890285;29;20217;-71
2022/04/20 01:22:43;;;;;;;4.43;2.97;;;9.00;99.90;;;;;;4887757;29;20194;-74
2022/04/20 01:25:10;;;;;;;3.67;2.53;;;9.00;99.90;;;;;;4890953;29;20294;-71
2022/04/20 01:27:40;;;;;;;11.10;3.40;;;9.00;99.90;;;;;;4883529;29;20627;-71
2022/04/20 01:30:07;;;;;;;3.10;2.20;;;9.00;99.90;;;;;;4920708;29;20725;-71
2022/04/20 01:32:35;;;;;;;4.60;2.60;;;8.90;99.90;;;;;;4890620;29;20717;-71
2022/04/20 01:35:02;;;;;;;4.23;2.87;;;8.80;99.90;;;;;;4880231;29;20211;-71
2022/04/20 01:37:28;;;;;;;5.60;2.73;;;8.60;99.90;;;;;;4886708;29;20207;-71
2022/04/20 01:39:56;;;;;;;7.43;2.90;;;8.60;99.90;;;;;;4890559;29;20237;-72
2022/04/20 01:42:22;;;;;;;3.97;2.80;;;8.70;99.90;;;;;;4892087;29;20197;-71
2022/04/20 01:44:49;;;;;;;4.20;3.10;;;8.60;99.90;;;;;;4890482;29;20209;-71
2022/04/20 01:47:16;;;;;;;3.93;2.90;;;8.60;99.90;;;;;;4894243;29;20199;-72
2022/04/20 01:49:42;;;;;;;8.30;3.23;;;8.50;99.90;;;;;;4890343;29;20215;-71
2022/04/20 01:52:09;;;;;;;4.40;2.63;;;8.50;99.90;;;;;;4890932;29;20504;-69
2022/04/20 01:54:36;;;;;;;2.90;2.53;;;8.50;99.90;;;;;;4895875;29;20211;-72
2022/04/20 01:57:03;;;;;;;4.67;2.57;;;8.40;99.90;;;;;;4896864;29;20201;-71
2022/04/20 01:59:29;;;;;;;4.80;2.87;;;8.30;99.90;;;;;;4895388;29;20224;-71
2022/04/20 02:04:41;;;;;;;5.43;2.87;;;8.40;99.90;;;;;;4893204;29;20194;-71
2022/04/20 02:07:08;;;;;;;7.10;3.00;;;8.30;99.90;;;;;;4896367;29;20557;-71
2022/04/20 02:09:35;;;;;;;5.80;2.90;;;8.30;99.90;;;;;;4896551;29;20224;-71
2022/04/20 02:12:01;;;;;;;5.80;2.73;;;8.30;99.90;;;;;;4906947;29;20205;-71
2022/04/20 02:14:28;;;;;;;5.60;3.17;;;8.30;99.90;;;;;;4894351;29;20273;-73
2022/04/20 02:16:55;;;;;;;6.17;3.13;;;8.30;99.90;;;;;;4894356;29;20211;-73
2022/04/20 02:19:21;;;;;;;5.27;3.00;;;8.20;99.90;;;;;;4894269;29;20281;-72
2022/04/20 02:21:48;;;;;;;4.27;2.93;;;8.20;99.90;;;;;;4891950;29;20205;-71
2022/04/20 02:24:15;;;;;;;5.43;2.53;;;8.30;99.90;;;;;;4894059;29;20204;-74
2022/04/20 02:26:42;;;;;;;5.87;3.00;;;8.20;99.90;;;;;;4896211;29;20572;-71
2022/04/20 02:29:08;;;;;;;4.07;2.60;;;8.20;99.90;;;;;;4893774;29;20270;-69
2022/04/20 02:31:35;;;;;;;6.80;2.90;;;8.10;99.90;;;;;;4893492;29;20732;-71
2022/04/20 02:34:02;;;;;;;4.33;2.73;;;8.00;99.90;;;;;;4889632;29;20242;-71
2022/04/20 02:36:28;;;;;;;4.43;3.00;;;8.10;99.90;;;;;;4895259;29;20683;-71
2022/04/20 02:38:55;;;;;;;3.67;2.90;;;8.00;99.90;;;;;;4892306;29;20700;-71
2022/04/20 02:41:22;;;;;;;4.50;2.80;;;8.00;99.90;;;;;;4891602;29;20204;-72
2022/04/20 02:43:49;;;;;;;9.87;2.97;;;8.10;99.90;;;;;;4893727;29;20221;-71
2022/04/20 02:46:16;;;;;;;5.07;2.80;;;8.00;99.90;;;;;;4895835;29;20558;-72
2022/04/20 02:48:42;;;;;;;3.73;2.70;;;8.00;99.90;;;;;;4895502;29;20215;-72
2022/04/20 02:51:09;;;;;;;3.87;2.70;;;8.00;99.90;;;;;;4895680;29;20238;-70
2022/04/20 02:53:36;;;;;;;5.30;2.47;;;8.00;99.90;;;;;;4897515;29;20208;-71
2022/04/20 02:56:02;;;;;;;4.13;2.80;;;8.00;99.90;;;;;;4895855;29;20272;-72
2022/04/20 02:58:29;;;;;;;4.10;2.60;;;7.90;99.90;;;;;;4890493;29;20223;-71
2022/04/20 03:00:56;;;;;;;4.17;2.63;;;7.80;99.90;;;;;;4892633;29;20208;-71
2022/04/20 03:03:22;;;;;;;7.13;2.63;;;7.90;99.90;;;;;;4895005;29;20229;-72
2022/04/20 03:05:50;;;;;;;3.90;2.83;;;7.80;99.90;;;;;;4894469;29;20644;-71
2022/04/20 03:08:17;;;;;;;4.87;2.73;;;7.80;99.90;;;;;;4895762;29;20242;-71
2022/04/20 03:10:44;;;;;;;3.77;2.87;;;7.80;99.90;;;;;;4896842;29;20220;-72
2022/04/20 03:13:11;;;;;;;3.37;2.77;;;7.80;99.90;;;;;;4891957;29;20205;-71
2022/04/20 03:15:37;;;;;;;4.57;2.60;;;7.70;99.90;;;;;;4895570;29;20207;-73
2022/04/20 03:18:04;;;;;;;4.37;2.57;;;7.80;99.90;;;;;;4897217;29;20204;-71
2022/04/20 03:20:31;;;;;;;3.67;2.23;;;7.80;99.90;;;;;;4906242;29;20228;-71
2022/04/20 03:22:58;;;;;;;3.47;2.50;;;7.80;99.90;;;;;;4893701;29;20212;-71
2022/04/20 03:25:25;;;;;;;4.60;2.47;;;7.80;99.90;;;;;;4893869;29;20227;-71
2022/04/20 03:27:51;;;;;;;5.23;2.80;;;7.80;99.90;;;;;;4893661;29;20195;-71
2022/04/20 03:30:18;;;;;;;3.90;2.60;;;7.80;99.90;;;;;;4891815;29;20320;-74
2022/04/20 03:32:45;;;;;;;6.33;2.53;;;7.80;99.90;;;;;;4895347;29;20204;-75
2022/04/20 03:35:12;;;;;;;4.10;2.40;;;7.80;99.90;;;;;;4896601;29;20230;-73
2022/04/20 03:37:38;;;;;;;4.27;2.67;;;7.70;99.90;;;;;;4893456;29;20207;-74
2022/04/20 03:40:07;;;;;;;4.37;2.53;;;7.70;99.90;;;;;;4891563;29;20234;-74
2022/04/20 03:42:35;;;;;;;5.20;2.70;;;7.70;99.90;;;;;;4891176;29;20196;-73
2022/04/20 03:45:02;;;;;;;4.43;2.50;;;7.70;99.90;;;;;;4893057;29;20200;-74
2022/04/20 03:47:28;;;;;;;5.67;2.60;;;7.70;99.90;;;;;;4896136;29;20785;-74
2022/04/20 03:49:55;;;;;;;3.50;2.20;;;7.70;99.90;;;;;;4906590;29;20246;-76
2022/04/20 03:52:22;;;;;;;5.07;2.50;;;7.50;99.90;;;;;;4894995;29;20215;-74
2022/04/20 03:54:48;;;;;;;3.63;2.63;;;7.50;99.90;;;;;;4893070;29;20318;-74
2022/04/20 03:57:15;;;;;;;2.80;2.50;;;7.50;99.90;;;;;;4891003;29;20209;-73
2022/04/20 03:59:42;;;;;;;4.57;2.47;;;7.40;99.90;;;;;;4893240;29;20230;-76
2022/04/20 04:02:08;;;;;;;3.30;2.30;;;7.40;99.90;;;;;;4891711;29;20204;-73
2022/04/20 04:04:35;;;;;;;3.30;2.40;;;7.30;99.90;;;;;;4892721;29;20212;-74
2022/04/20 04:07:02;;;;;;;4.17;2.50;;;7.30;99.90;;;;;;4893141;29;20670;-74
2022/04/20 04:09:29;;;;;;;2.73;2.27;;;7.30;99.90;;;;;;4893880;29;20227;-74
2022/04/20 04:11:55;;;;;;;7.93;2.50;;;7.30;99.90;;;;;;4907698;29;20841;-74
2022/04/20 04:14:22;;;;;;;3.90;2.20;;;7.30;99.90;;;;;;4893257;29;20214;-74
2022/04/20 04:16:49;;;;;;;4.00;2.40;;;7.30;99.90;;;;;;4893035;29;20204;-75
2022/04/20 04:19:15;;;;;;;3.43;2.40;;;7.30;99.90;;;;;;4892780;29;20226;-73
2022/04/20 04:21:42;;;;;;;5.80;2.60;;;7.30;99.90;;;;;;4890014;29;20197;-74
2022/04/20 04:24:34;;;;;;;3.27;2.33;;;7.40;99.90;;;;;;4905811;29;20201;-74
2022/04/20 04:26:57;;;;;;;3.07;2.20;;;7.30;99.90;;;;;;4890032;29;20209;-73
2022/04/20 04:29:24;;;;;;;5.57;2.47;;;7.30;99.90;;;;;;4894008;29;20237;-71
2022/04/20 04:31:51;;;;;;;4.03;2.60;;;7.20;99.90;;;;;;4892179;29;20212;-72
2022/04/20 04:34:17;;;;;;;6.10;2.60;;;7.30;99.90;;;;;;4895236;29;20220;-72
2022/04/20 04:36:44;;;;;;;3.97;2.27;;;7.30;99.90;;;;;;4891140;29;20197;-72
2022/04/20 04:39:11;;;;;;;4.07;2.47;;;7.40;99.90;;;;;;4890157;29;20234;-74
2022/04/20 04:41:38;;;;;;;3.83;2.40;;;7.40;99.90;;;;;;4892804;29;20199;-71
2022/04/20 04:44:04;;;;;;;4.03;2.60;;;7.40;99.90;;;;;;4890260;29;20203;-71
2022/04/20 04:49:16;;;;;;;3.97;2.33;;;7.40;99.90;;;;;;4886502;29;20722;-72
2022/04/20 04:51:43;;;;;;;7.57;2.50;;;7.50;99.90;;;;;;4891667;29;20200;-73
2022/04/20 04:54:10;;;;;;;4.93;2.40;;;7.50;99.90;;;;;;4890165;29;20251;-72
2022/04/20 04:56:37;;;;;;;3.33;2.60;;;7.50;99.90;;;;;;4891677;29;20230;-72
2022/04/20 04:59:03;;;;;;;6.27;2.57;;;7.40;99.90;;;;;;4891391;29;20235;-72
2022/04/20 05:01:30;;;;;;;3.67;2.40;;;7.40;99.90;;;;;;4892833;29;20787;-72
2022/04/20 05:03:57;;;;;;;2.90;2.27;;;7.50;99.90;;;;;;4891892;29;20211;-72
2022/04/20 05:06:23;;;;;;;3.10;2.43;;;7.60;99.90;;;;;;4891277;29;20200;-73
2022/04/20 05:08:50;;;;;;;3.87;2.27;;;7.60;99.90;;;;;;4892362;29;20204;-72
2022/04/20 05:11:17;;;;;;;2.97;2.50;;;7.60;99.90;;;;;;4893278;29;20268;-71
2022/04/20 05:13:44;;;;;;;3.00;2.33;;;7.70;99.90;;;;;;4907057;29;20283;-72
2022/04/20 05:16:12;;;;;;;8.53;2.63;;;7.80;99.90;;;;;;4901184;29;20251;-72
2022/04/20 05:18:39;;;;;;;5.40;2.33;;;7.90;99.90;;;;;;4889268;29;20237;-72
2022/04/20 05:21:05;;;;;;;5.90;2.40;;;7.90;99.90;;;;;;4892387;29;20228;-72
2022/04/20 05:23:32;;;;;;;3.43;2.43;;;7.90;99.90;;;;;;4891038;29;21406;-73
2022/04/20 05:25:59;;;;;;;7.83;2.73;;;7.90;99.90;;;;;;4892485;29;20208;-72
2022/04/20 05:28:25;;;;;;;4.50;2.30;;;8.00;99.90;;;;;;4895116;29;20204;-72
2022/04/20 05:30:52;;;;;;;6.00;2.40;;;8.00;99.90;;;;;;4887535;29;20295;-72
2022/04/20 05:33:18;;;;;;;3.43;2.20;;;8.10;99.90;;;;;;4896247;29;20212;-73
2022/04/20 05:35:45;;;;;;;6.67;2.60;;;8.20;99.90;;;;;;4896744;29;20206;-71
2022/04/20 05:43:43;;;;;;;4.87;2.47;;;8.40;99.90;;;;;;4896354;29;20203;-74
2022/04/20 05:46:10;;;;;;;3.93;2.60;;;8.40;99.90;;;;;;4890916;29;20196;-73
2022/04/20 05:48:37;;;;;;;7.00;2.40;;;8.60;99.90;;;;;;4896587;29;20202;-73
2022/04/20 05:51:03;;;;;;;5.00;2.43;;;8.80;99.90;;;;;;4894660;29;20223;-74
2022/04/20 05:53:30;;;;;;;5.30;2.60;;;8.80;99.90;;;;;;4889457;29;20828;-73
2022/04/20 05:55:57;;;;;;;2.87;2.50;;;8.80;99.90;;;;;;4884902;29;20209;-73
2022/04/20 05:58:23;;;;;;;4.03;2.47;;;8.90;99.90;;;;;;4893171;29;20208;-73
2022/04/20 06:00:50;;;;;;;3.27;2.30;;;8.90;99.90;;;;;;4889241;29;20307;-73
2022/04/20 06:03:17;;;;;;;3.87;2.43;;;8.90;99.90;;;;;;4893699;29;20220;-74
2022/04/20 06:05:43;;;;;;;5.80;2.13;;;8.90;99.90;;;;;;4894306;29;20193;-74
2022/04/20 06:08:10;;;;;;;4.83;2.50;;;8.90;99.90;;;;;;4891374;29;20210;-73
2022/04/20 06:10:37;;;;;;;3.60;2.10;;;9.00;99.90;;;;;;4890325;29;20300;-73
2022/04/20 06:13:03;;;;;;;5.87;2.50;;;9.00;99.90;;;;;;4889322;29;20211;-77
2022/04/20 06:15:30;;;;;;;3.90;2.70;;;9.10;99.90;;;;;;4893526;29;20684;-72
2022/04/20 06:17:57;;;;;;;3.13;2.37;;;9.20;99.90;;;;;;4891187;29;20785;-74
2022/04/20 06:20:25;;;;;;;4.73;2.33;;;9.20;99.90;;;;;;4894260;29;20233;-75
2022/04/20 06:22:52;;;;;;;6.80;2.57;;;9.30;99.90;;;;;;4893886;29;20263;-78
2022/04/20 06:25:18;;;;;;;5.23;2.07;;;9.40;99.90;;;;;;4889612;29;20298;-74
2022/04/20 06:27:45;;;;;;;5.00;2.37;;;9.40;99.90;;;;;;4893340;29;20205;-75
2022/04/20 06:30:11;;;;;;;5.80;2.80;;;9.50;99.90;;;;;;4890587;29;20231;-74
2022/04/20 06:32:38;;;;;;;5.50;2.83;;;9.70;99.90;;;;;;4892524;29;20204;-75
2022/04/20 06:35:06;;;;;;;4.93;2.20;;;9.80;99.90;;;;;;4889063;29;20206;-73
2022/04/20 06:37:32;;;;;;;9.90;2.77;;;9.80;99.90;;;;;;4906613;29;20229;-76
2022/04/20 06:39:59;;;;;;;4.33;2.77;;;9.80;99.90;;;;;;4893299;29;20227;-77
2022/04/20 06:42:27;;;;;;;3.73;2.60;;;9.80;99.90;;;;;;4888928;29;20213;-73
2022/04/20 06:44:54;;;;;;;3.77;2.40;;;9.90;99.90;;;;;;4897709;29;20256;-75
2022/04/20 06:47:21;;;;;;;9.37;2.90;;;10.00;99.90;;;;;;4907501;29;20203;-74
2022/04/20 06:49:47;;;;;;;5.13;2.83;;;9.90;99.90;;;;;;4895189;29;20579;-73
2022/04/20 07:00:32;;;;;;;5.70;2.77;;;10.20;99.90;;;;;;4892803;29;20238;-74
2022/04/20 07:03:00;;;;;;;5.73;3.30;;;10.40;99.90;;;;;;4904420;29;20571;-74
2022/04/20 07:05:27;;;;;;;5.83;3.00;;;10.50;99.90;;;;;;4894442;29;20222;-73
2022/04/20 07:08:00;;;;;;;6.43;2.97;;;10.70;99.90;;;;;;4895577;29;20225;-74
2022/04/20 07:10:28;;;;;;;8.17;3.30;;;11.00;99.90;;;;;;4892089;29;20824;-74
2022/04/20 07:12:55;;;;;;;8.50;2.87;;;11.10;99.90;;;;;;4890631;29;20287;-73
2022/04/20 07:15:21;;;;;;;5.50;2.97;;;11.00;99.90;;;;;;4890705;29;20208;-81
2022/04/20 07:17:48;;;;;;;6.30;3.37;;;11.20;99.90;;;;;;4893880;29;20681;-73
2022/04/20 07:20:17;;;;;;;6.30;3.10;;;11.50;99.90;;;;;;4892635;29;20220;-73
2022/04/20 07:22:48;;;;;;;4.37;3.20;;;11.60;99.90;;;;;;4892265;29;20261;-73
2022/04/20 07:25:16;;;;;;;6.10;3.67;;;11.90;99.90;;;;;;4889233;29;20201;-73
2022/04/20 07:27:45;;;;;;;7.10;3.17;;;11.70;99.90;;;;;;4886920;29;20216;-76
2022/04/20 07:30:12;;;;;;;8.23;3.53;;;11.70;99.90;;;;;;4887690;29;20231;-75
2022/04/20 07:32:39;;;;;;;5.63;2.80;;;11.60;99.90;;;;;;4891041;29;20219;-73
2022/04/20 07:35:06;;;;;;;4.87;3.00;;;11.60;99.90;;;;;;4886656;29;20204;-75
2022/04/20 07:37:33;;;;;;;4.87;3.40;;;11.80;99.90;;;;;;4899261;29;20578;-76
2022/04/20 07:39:59;;;;;;;8.40;3.00;;;11.90;99.90;;;;;;4890356;29;20231;-76
2022/04/20 07:42:26;;;;;;;5.57;2.97;;;12.10;99.90;;;;;;4892829;29;20206;-80
2022/04/20 07:44:56;;;;;;;5.40;3.10;;;12.20;99.90;;;;;;4888426;29;20200;-77
2022/04/20 07:47:27;;;;;;;4.97;2.90;;;12.10;99.90;;;;;;4885809;29;20263;-78
2022/04/20 07:52:42;;;;;;;5.23;3.00;;;12.00;99.90;;;;;;4892912;29;20205;-77
2022/04/20 07:55:17;;;;;;;5.63;3.00;;;12.10;99.90;;;;;;4889342;29;20201;-79
2022/04/20 07:57:44;;;;;;;4.93;2.90;;;12.20;99.90;;;;;;4881373;29;20203;-80
2022/04/20 08:00:13;;;;;;;5.63;3.20;;;12.30;99.90;;;;;;4889001;29;20224;-86
2022/04/20 08:02:40;;;;;;;4.90;2.80;;;12.40;99.90;;;;;;4887155;29;20628;-80
2022/04/20 08:05:08;;;;;;;6.50;2.97;;;12.40;99.90;;;;;;4892362;29;20209;-81
2022/04/20 08:07:35;;;;;;;3.70;2.67;;;12.50;99.90;;;;;;4888882;29;20209;-86
2022/04/20 08:10:06;;;;;;;6.57;3.30;;;12.30;99.90;;;;;;4888109;29;20318;-80
2022/04/20 08:12:44;;;;;;;6.23;3.20;;;12.20;99.90;;;;;;4883121;29;20202;-82
2022/04/20 08:15:11;;;;;;;8.73;3.53;;;12.10;99.90;;;;;;4889937;29;20239;-76
2022/04/20 08:17:38;;;;;;;4.27;3.00;;;12.10;99.90;;;;;;4889375;29;20725;-82
2022/04/20 08:20:08;;;;;;;6.73;3.23;;;12.20;99.90;;;;;;4892013;29;20228;-81
2022/04/20 08:22:44;;;;;;;4.73;2.70;;;12.50;99.90;;;;;;4892458;29;20213;-84
2022/04/20 08:25:13;;;;;;;7.87;3.20;;;12.80;99.90;;;;;;4888953;29;20197;-86
2022/04/20 08:27:40;;;;;;;8.20;3.30;;;13.00;99.90;;;;;;4891952;29;20215;-80
2022/04/20 08:30:07;;;;;;;6.07;3.27;;;13.30;99.90;;;;;;4892045;29;20224;-75
2022/04/20 08:32:35;;;;;;;8.40;3.53;;;13.50;99.90;;;;;;4888495;29;20294;-74
2022/04/20 08:35:02;;;;;;;6.50;3.47;;;13.70;99.90;;;;;;4880219;29;20210;-78
2022/04/20 08:37:29;;;;;;;7.80;3.90;;;13.70;99.90;;;;;;4892086;29;20207;-75
2022/04/20 08:39:55;;;;;;;6.60;3.27;;;13.80;99.90;;;;;;4892568;29;20286;-73
2022/04/20 08:42:24;;;;;;;6.57;3.43;;;13.80;99.90;;;;;;4882583;29;20256;-75
2022/04/20 08:44:51;;;;;;;7.20;3.60;;;13.70;99.50;;;;;;4882881;29;20203;-74
2022/04/20 08:47:22;;;;;;;4.37;3.40;;;13.80;99.40;;;;;;4888387;29;20201;-76
2022/04/20 08:49:50;;;;;;;9.33;3.10;;;14.00;97.80;;;;;;4910528;29;20225;-72
2022/04/20 08:52:37;;;;;;;6.43;3.63;;;14.10;97.80;;;;;;4892627;29;20205;-73
2022/04/20 08:55:10;;;;;;;8.13;3.10;;;14.20;98.00;;;;;;4884191;29;20582;-72
2022/04/20 08:57:38;;;;;;;8.67;3.27;;;14.20;96.60;;;;;;4891998;29;20307;-74
2022/04/20 09:00:11;;;;;;;8.67;3.03;;;14.20;95.90;;;;;;4892337;29;20328;-74
2022/04/20 09:02:38;;;;;;;9.70;3.23;;;14.10;95.60;;;;;;4895544;29;20284;-72
2022/04/20 09:05:06;;;;;;;6.50;2.80;;;14.20;96.00;;;;;;4910899;29;20202;-76
2022/04/20 09:07:33;;;;;;;8.57;3.03;;;13.80;97.90;;;;;;4892125;29;20289;-74
2022/04/20 09:10:03;;;;;;;10.30;3.00;;;13.90;97.40;;;;;;4896250;29;20546;-73
2022/04/20 09:12:29;;;;;;;5.60;3.10;;;14.00;96.20;;;;;;4889972;29;20228;-73
2022/04/20 09:14:58;;;;;;;6.13;3.23;;;14.20;97.60;;;;;;4885954;29;20201;-74
2022/04/20 09:17:26;;;;;;;5.80;2.80;;;14.10;96.60;;;;;;4890574;29;20196;-75
2022/04/20 09:19:55;;;;;;;6.47;3.30;;;13.90;97.50;;;;;;4894583;29;20342;-73
2022/04/20 09:22:27;;;;;;;7.60;2.97;;;14.00;97.00;;;;;;4894940;29;20196;-76
2022/04/20 09:25:07;;;;;;;12.13;3.57;;;14.30;96.00;;;;;;4895446;29;22499;-74
2022/04/20 09:27:36;;;;;;;4.37;2.83;;;14.30;95.60;;;;;;4895439;29;20285;-73
2022/04/20 09:30:08;;;;;;;4.83;2.77;;;14.20;95.90;;;;;;4896285;29;20222;-73
2022/04/20 09:32:38;;;;;;;6.20;3.00;;;14.10;95.70;;;;;;4889007;29;20201;-74
2022/04/20 09:35:07;;;;;;;6.23;3.00;;;14.30;96.20;;;;;;4909308;29;20206;-74
2022/04/20 09:37:36;;;;;;;4.77;3.00;;;14.60;95.50;;;;;;4891597;29;20663;-75
2022/04/20 09:40:05;;;;;;;6.07;2.90;;;14.70;95.60;;;;;;4891198;29;20229;-73
2022/04/20 09:42:37;;;;;;;5.57;2.70;;;15.00;94.80;;;;;;4895410;29;20210;-73
2022/04/20 09:45:06;;;;;;;3.27;2.70;;;15.10;95.30;;;;;;4893807;29;20193;-73
2022/04/20 09:50:24;;;;;;;4.43;2.70;;;15.50;94.80;;;;;;4885707;29;20218;-73
2022/04/20 09:52:58;;;;;;;11.27;2.57;;;15.20;94.10;;;;;;4888848;29;20210;-72
2022/04/20 09:55:32;;;;;;;5.03;2.90;;;14.90;94.20;;;;;;4896218;29;20233;-77
2022/04/20 09:58:24;;;;;;;12.20;3.20;;;14.50;94.70;;;;;;4892293;29;20201;-74
2022/04/20 10:00:52;;;;;;;5.07;2.67;;;14.60;95.60;;;;;;4895585;29;20644;-73
2022/04/20 10:03:31;;;;;;;5.60;2.57;;;14.50;95.00;;;;;;4892831;29;20300;-73
2022/04/20 10:05:59;;;;;;;3.73;2.80;;;14.50;95.80;;;;;;4887390;29;21119;-74
2022/04/20 10:08:26;;;;;;;6.80;2.90;;;14.70;95.10;;;;;;4889297;29;20211;-71
2022/04/20 10:10:55;;;;;;;4.57;2.80;;;14.80;94.80;;;;;;4888658;29;20275;-73
2022/04/20 10:13:22;;;;;;;10.87;2.87;;;14.70;95.00;;;;;;4885605;29;20199;-74
2022/04/20 10:16:05;;;;;;;6.10;2.73;;;14.70;94.80;;;;;;4885294;29;20266;-73
2022/04/20 10:18:37;;;;;;;5.77;3.00;;;14.60;94.90;;;;;;4891540;29;20207;-73
2022/04/20 10:21:06;;;;;;;4.70;3.00;;;14.70;95.30;;;;;;4895944;29;20227;-74
2022/04/20 10:23:34;;;;;;;4.03;2.80;;;14.90;94.70;;;;;;4884899;29;20204;-74
2022/04/20 10:26:07;;;;;;;3.50;2.50;;;14.90;94.10;;;;;;4892924;29;20249;-71
2022/04/20 10:28:45;;;;;;;5.03;2.70;;;14.80;94.40;;;;;;4886970;29;20366;-72
2022/04/20 10:31:18;;;;;;;7.23;2.90;;;14.90;94.50;;;;;;4884186;29;20658;-74
2022/04/20 10:33:45;;;;;;;6.07;2.77;;;15.20;94.50;;;;;;4885927;29;20201;-71
2022/04/20 10:36:18;;;;;;;3.70;2.73;;;15.40;94.10;;;;;;4889532;29;20216;-75
2022/04/20 10:38:48;;;;;;;3.77;2.33;;;15.70;94.20;;;;;;4882633;29;20430;-72
2022/04/20 10:41:18;;;;;;;3.13;2.53;;;15.90;94.40;;;;;;4882725;29;20217;-76
2022/04/20 10:43:45;;;;;;;5.53;2.70;;;16.10;93.70;;;;;;4884444;29;20206;-69
2022/04/20 10:46:19;;;;;;;6.03;2.60;;;16.10;93.20;;;;;;4883589;29;20654;-72
2022/04/20 10:48:55;;;;;;;5.00;2.33;;;15.80;93.30;;;;;;4883705;29;20228;-72
2022/04/20 10:51:34;;;;;;;4.50;2.60;;;15.60;93.30;;;;;;4883566;29;20205;-74
2022/04/20 10:54:29;;;;;;;4.83;2.80;;;15.60;93.90;;;;;;4882168;29;20201;-72
2022/04/20 10:56:59;;;;;;;5.97;2.83;;;15.50;93.20;;;;;;4882984;29;20696;-71
2022/04/20 10:59:29;;;;;;;5.17;2.57;;;15.30;93.60;;;;;;4889159;29;20221;-72
2022/04/20 11:01:59;;;;;;;5.40;2.70;;;15.40;94.40;;;;;;4893849;29;20232;-71
2022/04/20 11:04:42;;;;;;;4.37;2.70;;;15.70;93.70;;;;;;4890219;29;20231;-74
2022/04/20 11:07:32;;;;;;;3.53;2.73;;;15.80;92.30;;;;;;4919551;29;20282;-72
2022/04/20 11:10:05;;;;;;;4.57;2.80;;;15.70;93.00;;;;;;4898667;29;20827;-73
2022/04/20 11:18:42;;;;;;;5.67;2.40;;;16.40;92.70;;;;;;4883536;29;20673;-74
2022/04/20 11:21:10;;;;;;;3.73;2.33;;;16.30;93.00;;;;;;4888650;29;20232;-73
2022/04/20 11:23:53;;;;;;;2.90;2.43;;;16.30;92.70;;;;;;4889563;29;20204;-76
2022/04/20 11:26:28;;;;;;;3.67;2.53;;;16.50;93.40;;;;;;4891169;29;20654;-73
2022/04/20 11:29:00;;;;;;;3.70;2.70;;;16.60;92.40;;;;;;4893869;29;20223;-73
2022/04/20 11:31:36;;;;;;;4.87;2.60;;;16.50;91.70;;;;;;4888695;29;20212;-74
2022/04/20 11:34:04;;;;;;;4.03;2.73;;;16.40;92.50;;;;;;4894618;29;20207;-74
2022/04/20 11:36:31;;;;;;;4.90;2.83;;;16.20;92.20;;;;;;4894724;29;20621;-73
2022/04/20 11:39:00;;;;;;;4.80;2.83;;;16.30;92.50;;;;;;4891497;29;20228;-74
2022/04/20 11:41:27;;;;;;;7.90;2.70;;;16.30;92.40;;;;;;4900038;29;20220;-72
2022/04/20 11:43:54;;;;;;;3.50;2.60;;;16.30;92.20;;;;;;4890617;29;20204;-75
2022/04/20 11:46:20;;;;;;;7.57;2.50;;;16.20;91.90;;;;;;4898867;29;20267;-73
2022/04/20 11:48:55;;;;;;;4.07;2.40;;;16.20;92.50;;;;;;4902985;29;20630;-72
2022/04/20 11:51:28;;;;;;;5.70;2.50;;;16.40;92.30;;;;;;4879441;29;20615;-76
2022/04/20 11:53:55;;;;;;;5.83;2.40;;;16.20;92.00;;;;;;4900980;29;20204;-74
2022/04/20 11:56:36;;;;;;;8.43;2.70;;;16.30;92.20;;;;;;4888647;29;20247;-74
2022/04/20 11:59:06;;;;;;;3.07;2.50;;;16.30;91.60;;;;;;4892400;29;20216;-74
2022/04/20 12:01:35;;;;;;;6.90;2.93;;;16.50;91.90;;;;;;4890666;29;20228;-77
2022/04/20 12:04:13;;;;;;;4.43;2.80;;;16.60;92.20;;;;;;4892545;29;20601;-74
2022/04/20 12:07:01;;;;;;;3.80;2.70;;;16.90;91.60;;;;;;4893803;29;20578;-75
2022/04/20 12:09:30;;;;;;;3.50;2.47;;;16.50;91.50;;;;;;4892080;29;20216;-75
2022/04/20 12:12:02;;;;;;;4.43;2.80;;;16.60;91.80;;;;;;4894987;29;20199;-73
2022/04/20 12:14:32;;;;;;;4.13;2.40;;;16.70;91.80;;;;;;4890347;29;20743;-74
2022/04/20 12:17:14;;;;;;;4.23;2.47;;;16.70;91.90;;;;;;4892881;29;20200;-75
2022/04/20 12:19:44;;;;;;;5.90;2.83;;;16.90;91.70;;;;;;4889720;29;20223;-74
2022/04/20 12:22:13;;;;;;;4.73;2.30;;;17.10;91.00;;;;;;4890088;29;20232;-72
2022/04/20 12:24:43;;;;;;;3.67;2.57;;;17.00;91.80;;;;;;4890796;29;20207;-73
2022/04/20 12:27:20;;;;;;;2.80;2.40;;;17.10;91.20;;;;;;4891683;29;20547;-70
2022/04/20 12:29:54;;;;;;;3.40;2.10;;;17.10;91.80;;;;;;4892569;29;20219;-75
2022/04/20 12:32:25;;;;;;;2.90;2.30;;;17.30;91.10;;;;;;4891121;29;20283;-72
2022/04/20 12:34:54;;;;;;;3.83;2.20;;;17.10;90.60;;;;;;4892139;29;20208;-72
2022/04/20 12:37:30;;;;;;;3.93;2.67;;;17.00;90.40;;;;;;4909858;29;20201;-74
2022/04/20 12:40:17;;;;;;;3.10;2.63;;;17.00;90.60;;;;;;4893142;29;20294;-75
2022/04/20 12:43:00;;;;;;;3.00;2.30;;;16.90;90.70;;;;;;4891111;29;20696;-72
2022/04/20 12:45:27;;;;;;;4.37;2.50;;;16.90;91.10;;;;;;4889787;29;20204;-75
2022/04/20 12:48:12;;;;;;;2.80;2.40;;;16.80;91.10;;;;;;4906300;29;20220;-72
2022/04/20 12:50:42;;;;;;;3.53;2.20;;;16.90;91.10;;;;;;4893431;29;20244;-71
2022/04/20 12:53:09;;;;;;;4.00;2.00;;;17.10;90.90;;;;;;4890072;29;20196;-76
2022/04/20 12:55:42;;;;;;;3.87;2.20;;;17.20;91.20;;;;;;4889108;29;20219;-72
2022/04/20 13:03:46;;;;;;;5.97;2.53;;;17.40;91.40;;;;;;4891591;29;20208;-74
2022/04/20 13:06:13;;;;;;;5.23;2.73;;;17.30;91.50;;;;;;4891476;29;20197;-72
2022/04/20 13:08:43;;;;;;;3.30;2.23;;;17.50;91.80;;;;;;4905157;29;20689;-73
2022/04/20 13:11:12;;;;;;;5.10;2.27;;;17.80;91.80;;;;;;4890093;29;20205;-73
2022/04/20 13:13:59;;;;;;;5.67;2.40;;;17.80;91.50;;;;;;4892756;29;20213;-74
2022/04/20 13:16:25;;;;;;;6.37;2.50;;;17.60;91.90;;;;;;4895548;29;20203;-78
2022/04/20 13:18:53;;;;;;;6.93;2.90;;;17.60;91.80;;;;;;4885010;29;20199;-74
2022/04/20 13:21:20;;;;;;;3.93;2.50;;;17.70;91.90;;;;;;4892462;29;20224;-72
2022/04/20 13:23:50;;;;;;;3.57;2.57;;;17.80;92.00;;;;;;4892363;29;20876;-73
2022/04/20 13:29:02;;;;;;;4.23;2.30;;;18.00;91.70;;;;;;4891021;29;20235;-71
2022/04/20 13:31:29;;;;;;;4.77;2.73;;;18.00;92.20;;;;;;4892970;29;20275;-73
2022/04/20 13:33:56;;;;;;;2.90;2.33;;;18.20;92.20;;;;;;4891460;29;20204;-72
2022/04/20 13:36:22;;;;;;;5.73;2.50;;;18.50;92.70;;;;;;4894151;29;20219;-74
2022/04/20 13:38:49;;;;;;;2.40;2.10;;;18.60;91.70;;;;;;4890744;29;20577;-72
2022/04/20 13:41:15;;;;;;;5.03;2.47;;;18.30;91.50;;;;;;4887529;29;20227;-72